Time;durP1;ratioP1;P1;durP2;ratioP2;P2;SDS_P1;SDS_P2;PMS_P1;PMS_P2;Temp;Humidity;BMP_temperature;BMP_pressure;BME280_temperature;BME280_humidity;BME280_pressure;Samples;Min_cycle;Max_cycle;Signal;HPM_P1;HPM_P2
2021/10/01 00:02:07;;;;;;;4.97;1.40;;;9.90;99.90;;;;;;5011319;28;20111;-65
2021/10/01 00:04:33;;;;;;;4.95;1.52;;;9.90;99.90;;;;;;5015112;28;20038;-64
2021/10/01 00:06:58;;;;;;;5.03;1.20;;;10.00;99.90;;;;;;5021087;28;20383;-64
2021/10/01 00:09:24;;;;;;;4.32;1.45;;;10.00;99.90;;;;;;5021117;28;20083;-64
2021/10/01 00:11:53;;;;;;;7.72;1.77;;;10.00;99.90;;;;;;5017276;28;20506;-64
2021/10/01 00:14:19;;;;;;;7.72;2.08;;;9.90;99.90;;;;;;5011969;28;20025;-64
2021/10/01 00:16:45;;;;;;;2.17;1.23;;;9.80;99.90;;;;;;5007282;28;20033;-64
2021/10/01 00:19:11;;;;;;;3.65;1.38;;;9.80;99.90;;;;;;5004470;28;20038;-65
2021/10/01 00:21:36;;;;;;;6.80;1.75;;;9.70;99.90;;;;;;5006449;28;20034;-64
2021/10/01 00:24:02;;;;;;;4.57;1.48;;;9.70;99.90;;;;;;5009687;28;20042;-64
2021/10/01 00:26:28;;;;;;;3.53;1.48;;;9.60;99.90;;;;;;5015224;28;20041;-64
2021/10/01 00:28:53;;;;;;;3.92;1.70;;;9.60;99.90;;;;;;5018105;28;20038;-64
2021/10/01 00:31:19;;;;;;;11.05;1.80;;;9.50;99.90;;;;;;5020523;28;20030;-64
2021/10/01 00:33:44;;;;;;;4.85;1.73;;;9.50;99.90;;;;;;5016985;28;20037;-65
2021/10/01 00:36:09;;;;;;;4.70;2.00;;;9.40;99.90;;;;;;5018741;28;20072;-66
2021/10/01 00:38:35;;;;;;;4.47;1.67;;;9.30;99.90;;;;;;5007800;28;20107;-64
2021/10/01 00:41:00;;;;;;;6.05;1.60;;;9.30;99.90;;;;;;5017887;28;20084;-64
2021/10/01 00:43:26;;;;;;;7.55;2.15;;;9.20;99.90;;;;;;5019277;28;20041;-64
2021/10/01 00:45:51;;;;;;;4.78;1.60;;;9.20;99.90;;;;;;5019458;28;20072;-64
2021/10/01 00:48:17;;;;;;;10.82;1.80;;;9.10;99.90;;;;;;5007592;28;20145;-64
2021/10/01 00:50:42;;;;;;;4.32;1.60;;;9.10;99.90;;;;;;5018201;28;20030;-64
2021/10/01 00:53:08;;;;;;;8.35;2.20;;;9.00;99.90;;;;;;5017865;28;20083;-64
2021/10/01 00:55:34;;;;;;;5.57;1.90;;;9.00;99.90;;;;;;5018976;28;20439;-64
2021/10/01 00:58:00;;;;;;;4.82;1.88;;;8.90;99.90;;;;;;5019323;28;20026;-64
2021/10/01 01:00:29;;;;;;;4.15;1.88;;;8.90;99.90;;;;;;5019877;28;21013;-64
2021/10/01 01:02:55;;;;;;;6.22;2.15;;;8.90;99.90;;;;;;5020062;28;20413;-64
2021/10/01 01:05:21;;;;;;;6.13;2.30;;;8.80;99.90;;;;;;5019767;28;20041;-64
2021/10/01 01:07:49;;;;;;;5.90;2.00;;;8.80;99.90;;;;;;5017783;28;20757;-64
2021/10/01 01:10:15;;;;;;;14.95;2.70;;;8.80;99.90;;;;;;5018507;28;20030;-64
2021/10/01 01:12:43;;;;;;;4.90;2.03;;;8.80;99.90;;;;;;5017145;28;20052;-64
2021/10/01 01:15:09;;;;;;;7.63;2.35;;;8.80;99.90;;;;;;5017938;28;20098;-65
2021/10/01 01:17:37;;;;;;;9.07;2.00;;;8.80;99.90;;;;;;5017770;28;20034;-64
2021/10/01 01:20:03;;;;;;;7.38;2.10;;;8.80;99.90;;;;;;5018856;28;20104;-64
2021/10/01 01:22:29;;;;;;;6.03;2.08;;;8.90;99.90;;;;;;5036746;28;20029;-64
2021/10/01 01:24:54;;;;;;;8.85;2.20;;;8.90;99.90;;;;;;5020485;28;20045;-64
2021/10/01 01:27:24;;;;;;;3.88;1.95;;;8.90;99.90;;;;;;5005101;28;20026;-64
2021/10/01 01:29:50;;;;;;;8.52;2.25;;;8.90;99.90;;;;;;5019507;28;20032;-64
2021/10/01 01:32:16;;;;;;;4.03;1.92;;;8.90;99.90;;;;;;5006341;28;20030;-64
2021/10/01 01:34:42;;;;;;;4.55;2.00;;;8.90;99.90;;;;;;5017143;28;20037;-64
2021/10/01 01:37:08;;;;;;;7.38;2.30;;;9.00;99.90;;;;;;5017696;28;21023;-64
2021/10/01 01:39:34;;;;;;;3.90;2.17;;;8.80;99.90;;;;;;5007655;28;20108;-64
2021/10/01 01:41:59;;;;;;;4.75;2.10;;;8.80;99.90;;;;;;5019467;28;20064;-64
2021/10/01 01:44:25;;;;;;;12.55;2.50;;;8.90;99.90;;;;;;5018513;28;20025;-64
2021/10/01 01:46:51;;;;;;;4.25;2.20;;;8.80;99.90;;;;;;5019476;28;20037;-64
2021/10/01 01:49:17;;;;;;;5.45;2.08;;;8.80;99.90;;;;;;5019379;28;20083;-64
2021/10/01 01:51:42;;;;;;;5.18;2.30;;;8.70;99.90;;;;;;5017685;28;20029;-64
2021/10/01 01:54:11;;;;;;;6.25;2.40;;;8.70;99.90;;;;;;5017674;28;20037;-64
2021/10/01 01:56:36;;;;;;;6.20;1.88;;;8.60;99.90;;;;;;5013743;28;20037;-64
2021/10/01 01:59:02;;;;;;;9.73;2.50;;;8.70;99.90;;;;;;5018846;28;20034;-64
2021/10/01 02:01:41;;;;;;;4.28;2.13;;;8.60;99.90;;;;;;5021203;28;20044;-64
2021/10/01 02:04:19;;;;;;;5.75;2.20;;;8.60;99.90;;;;;;5016742;28;20064;-64
2021/10/01 02:06:45;;;;;;;10.73;2.17;;;8.60;99.90;;;;;;5017204;28;20034;-64
2021/10/01 02:09:10;;;;;;;8.15;2.35;;;8.50;99.90;;;;;;5002089;28;20029;-64
2021/10/01 02:11:38;;;;;;;6.65;2.15;;;8.50;99.90;;;;;;5017856;28;20061;-64
2021/10/01 02:14:04;;;;;;;4.82;2.10;;;8.50;99.90;;;;;;5018088;28;20112;-64
2021/10/01 02:16:29;;;;;;;8.65;2.63;;;8.40;99.90;;;;;;5018315;28;20517;-64
2021/10/01 02:18:55;;;;;;;9.02;2.30;;;8.40;99.90;;;;;;5019697;28;20084;-64
2021/10/01 02:21:21;;;;;;;10.27;2.42;;;8.30;99.90;;;;;;5019036;28;20045;-64
2021/10/01 02:23:47;;;;;;;5.43;2.42;;;8.30;99.90;;;;;;5018107;28;20034;-65
2021/10/01 02:28:56;;;;;;;6.07;2.30;;;8.20;99.90;;;;;;5014463;28;20046;-65
2021/10/01 02:31:22;;;;;;;6.40;2.33;;;8.20;99.90;;;;;;5023641;28;20113;-64
2021/10/01 02:33:52;;;;;;;6.65;2.72;;;8.20;99.90;;;;;;5020587;28;20042;-65
2021/10/01 02:36:17;;;;;;;7.05;2.40;;;8.30;99.90;;;;;;5021939;28;20042;-64
2021/10/01 02:38:43;;;;;;;6.00;2.40;;;8.30;99.90;;;;;;5023203;28;20088;-64
2021/10/01 02:41:08;;;;;;;7.75;2.55;;;8.30;99.90;;;;;;5023042;28;20075;-64
2021/10/01 02:43:34;;;;;;;5.45;2.15;;;8.30;99.90;;;;;;5022110;28;20065;-65
2021/10/01 02:45:59;;;;;;;5.80;2.45;;;8.20;99.90;;;;;;5021509;28;20037;-64
2021/10/01 02:48:25;;;;;;;2.97;2.10;;;8.20;99.90;;;;;;5020194;28;20807;-64
2021/10/01 02:50:51;;;;;;;8.13;2.72;;;8.20;99.90;;;;;;5020493;28;20080;-65
2021/10/01 02:53:17;;;;;;;5.50;2.50;;;8.20;99.90;;;;;;5020512;28;20092;-64
2021/10/01 02:55:50;;;;;;;5.18;2.67;;;8.20;99.90;;;;;;5022543;28;20078;-64
2021/10/01 02:58:15;;;;;;;5.35;2.30;;;8.20;99.90;;;;;;5021258;28;20046;-64
2021/10/01 03:00:41;;;;;;;4.93;2.40;;;8.20;99.90;;;;;;5009950;28;20044;-64
2021/10/01 03:03:07;;;;;;;5.93;2.15;;;8.20;99.90;;;;;;5019640;28;20066;-64
2021/10/01 03:05:32;;;;;;;8.25;2.67;;;8.10;99.90;;;;;;5007522;28;20117;-64
2021/10/01 03:07:58;;;;;;;6.68;3.10;;;7.80;99.90;;;;;;5012417;28;20021;-64
2021/10/01 03:10:24;;;;;;;4.35;2.30;;;8.20;99.90;;;;;;5022221;28;20025;-64
2021/10/01 03:12:50;;;;;;;9.32;2.40;;;8.10;99.90;;;;;;5022120;28;20692;-64
2021/10/01 03:15:15;;;;;;;5.63;2.47;;;8.10;99.90;;;;;;5022233;28;20520;-64
2021/10/01 03:17:45;;;;;;;5.97;2.67;;;8.00;99.90;;;;;;5038169;28;20037;-64
2021/10/01 03:20:10;;;;;;;4.50;2.53;;;8.00;99.90;;;;;;5021256;28;20034;-64
2021/10/01 03:22:36;;;;;;;8.60;2.63;;;8.00;99.90;;;;;;5022002;28;20029;-64
2021/10/01 03:25:01;;;;;;;8.73;2.50;;;8.00;99.90;;;;;;5022151;28;20061;-64
2021/10/01 03:27:27;;;;;;;5.70;2.70;;;8.00;99.90;;;;;;5021650;28;20738;-64
2021/10/01 03:29:53;;;;;;;5.85;2.20;;;7.90;99.90;;;;;;5021830;28;20030;-64
2021/10/01 03:32:18;;;;;;;4.85;2.75;;;7.90;99.90;;;;;;5020795;28;20095;-64
2021/10/01 03:34:44;;;;;;;8.50;2.70;;;7.80;99.90;;;;;;5022383;28;20488;-64
2021/10/01 03:37:09;;;;;;;8.10;2.83;;;7.90;99.90;;;;;;5022197;28;20517;-65
2021/10/01 03:39:35;;;;;;;4.32;2.50;;;7.90;99.90;;;;;;5020737;28;20026;-64
2021/10/01 03:42:02;;;;;;;5.25;2.65;;;7.80;99.90;;;;;;5020002;28;20064;-64
2021/10/01 03:44:28;;;;;;;5.38;2.35;;;7.80;99.90;;;;;;5018420;28;20127;-64
2021/10/01 03:46:54;;;;;;;4.68;2.65;;;7.80;99.90;;;;;;5018791;28;20033;-65
2021/10/01 03:49:22;;;;;;;6.30;3.17;;;7.80;99.90;;;;;;5020103;28;20030;-65
2021/10/01 03:51:48;;;;;;;6.47;2.80;;;7.90;99.90;;;;;;5019935;28;20820;-65
2021/10/01 03:54:13;;;;;;;3.60;2.30;;;7.90;99.90;;;;;;5011502;28;20116;-65
2021/10/01 03:56:39;;;;;;;4.25;2.28;;;7.80;99.90;;;;;;5018289;28;20063;-64
2021/10/01 03:59:04;;;;;;;6.68;2.70;;;7.70;99.90;;;;;;5019134;28;20124;-63
2021/10/01 04:01:30;;;;;;;5.35;2.88;;;7.80;99.90;;;;;;5015369;28;20561;-63
2021/10/01 04:03:55;;;;;;;7.22;3.75;;;7.50;99.90;;;;;;5036436;28;20036;-64
2021/10/01 04:06:21;;;;;;;5.82;2.30;;;7.70;99.90;;;;;;5020481;28;20042;-64
2021/10/01 04:08:47;;;;;;;4.47;2.85;;;7.70;99.90;;;;;;5022007;28;20027;-64
2021/10/01 04:11:13;;;;;;;9.02;2.70;;;7.80;99.90;;;;;;5013095;28;20037;-64
2021/10/01 04:13:40;;;;;;;6.88;2.60;;;7.80;99.90;;;;;;5038790;28;20524;-64
2021/10/01 04:16:05;;;;;;;7.25;2.50;;;7.70;99.90;;;;;;5020001;28;20048;-64
2021/10/01 04:18:31;;;;;;;3.42;2.25;;;7.70;99.90;;;;;;5018681;28;20728;-66
2021/10/01 04:20:57;;;;;;;4.45;2.40;;;7.70;99.90;;;;;;5019402;28;20033;-64
2021/10/01 04:23:22;;;;;;;3.58;2.10;;;7.70;99.90;;;;;;5008290;28;20037;-64
2021/10/01 04:25:50;;;;;;;6.60;2.40;;;7.70;99.90;;;;;;5020327;28;20055;-65
2021/10/01 04:28:18;;;;;;;4.93;2.63;;;7.70;99.90;;;;;;5020364;28;20125;-64
2021/10/01 04:30:47;;;;;;;7.45;2.10;;;7.70;99.90;;;;;;5015547;28;20116;-64
2021/10/01 04:33:23;;;;;;;3.95;2.35;;;7.70;99.90;;;;;;5021055;28;20056;-64
2021/10/01 04:35:50;;;;;;;5.50;2.35;;;7.80;99.90;;;;;;5009361;28;20117;-65
2021/10/01 04:38:16;;;;;;;4.18;2.67;;;7.70;99.90;;;;;;5020823;28;20165;-64
2021/10/01 04:40:43;;;;;;;4.35;2.40;;;7.70;99.90;;;;;;5020874;28;20029;-65
2021/10/01 04:43:09;;;;;;;7.85;2.60;;;7.70;99.90;;;;;;5021102;28;20041;-65
2021/10/01 04:45:39;;;;;;;36.47;18.00;;;7.60;99.90;;;;;;5015323;28;20064;-64
2021/10/01 04:48:05;;;;;;;5.82;2.67;;;7.60;99.90;;;;;;5013427;28;20629;-78
2021/10/01 04:50:32;;;;;;;12.50;3.50;;;7.70;99.90;;;;;;5037820;28;20034;-65
2021/10/01 04:52:58;;;;;;;3.58;2.40;;;7.70;99.90;;;;;;5019184;28;20473;-65
2021/10/01 04:55:25;;;;;;;4.78;2.55;;;7.70;99.90;;;;;;5013075;28;20030;-65
2021/10/01 04:57:51;;;;;;;4.97;2.38;;;7.70;99.90;;;;;;5015859;28;20040;-65
2021/10/01 05:00:43;;;;;;;7.15;2.60;;;7.70;99.90;;;;;;4999700;28;20092;-64
2021/10/01 05:03:27;;;;;;;4.43;2.40;;;7.70;99.90;;;;;;5024737;28;20500;-64
2021/10/01 05:06:21;;;;;;;7.85;2.88;;;7.60;99.90;;;;;;4979272;28;20049;-64
2021/10/01 05:09:05;;;;;;;7.72;2.80;;;7.60;99.90;;;;;;5012087;28;20041;-64
2021/10/01 05:11:50;;;;;;;6.45;2.45;;;7.60;99.90;;;;;;5020120;28;20442;-65
2021/10/01 05:14:34;;;;;;;8.68;2.55;;;7.60;99.90;;;;;;5013518;28;20049;-64
2021/10/01 05:17:18;;;;;;;5.72;2.60;;;7.50;99.90;;;;;;5015933;28;20191;-65
2021/10/01 05:20:04;;;;;;;7.20;2.35;;;7.50;99.90;;;;;;4987827;28;20117;-65
2021/10/01 05:22:36;;;;;;;5.13;2.53;;;7.60;99.90;;;;;;5001645;28;20040;-65
2021/10/01 05:25:01;;;;;;;9.38;2.50;;;7.70;99.90;;;;;;5019387;28;20041;-65
2021/10/01 05:27:27;;;;;;;5.05;2.25;;;7.70;99.90;;;;;;5019323;28;20029;-65
2021/10/01 05:29:53;;;;;;;6.00;2.13;;;7.70;99.90;;;;;;5020711;28;20029;-65
2021/10/01 05:32:18;;;;;;;4.43;2.35;;;7.70;99.90;;;;;;5019169;28;20057;-65
2021/10/01 05:34:44;;;;;;;3.72;2.45;;;7.70;99.90;;;;;;5022248;28;20048;-64
2021/10/01 05:37:09;;;;;;;5.75;2.20;;;7.80;99.90;;;;;;5021514;28;20223;-64
2021/10/01 05:39:35;;;;;;;4.30;2.53;;;7.90;99.90;;;;;;5019667;28;20064;-65
2021/10/01 05:42:01;;;;;;;11.02;2.55;;;7.90;99.90;;;;;;5016885;28;20871;-65
2021/10/01 05:44:27;;;;;;;5.43;2.47;;;7.90;99.90;;;;;;5017937;28;20136;-64
2021/10/01 05:46:53;;;;;;;7.35;2.65;;;8.00;99.90;;;;;;5012279;28;20073;-64
2021/10/01 05:49:39;;;;;;;4.97;2.33;;;8.00;99.90;;;;;;5022775;28;20041;-65
2021/10/01 05:52:27;;;;;;;6.68;2.42;;;8.10;99.90;;;;;;5018163;28;20051;-64
2021/10/01 05:55:11;;;;;;;9.27;2.45;;;8.10;99.90;;;;;;5018291;28;20099;-65
2021/10/01 05:57:55;;;;;;;7.05;2.53;;;8.10;99.90;;;;;;5007812;28;20056;-65
2021/10/01 06:00:26;;;;;;;10.27;2.20;;;8.30;99.90;;;;;;5019383;28;20034;-65
2021/10/01 06:02:52;;;;;;;7.15;2.13;;;8.20;99.90;;;;;;5015143;28;20037;-65
2021/10/01 06:05:17;;;;;;;6.03;2.15;;;8.20;99.90;;;;;;5018176;28;20038;-64
2021/10/01 06:07:43;;;;;;;5.65;2.60;;;8.30;99.90;;;;;;5021361;28;20701;-64
2021/10/01 06:10:09;;;;;;;5.97;2.72;;;8.30;99.90;;;;;;5018060;28;20022;-65
2021/10/01 06:12:34;;;;;;;3.72;1.88;;;8.50;99.90;;;;;;5013957;28;20048;-65
2021/10/01 06:15:00;;;;;;;4.88;2.00;;;8.40;99.90;;;;;;5014271;28;20038;-65
2021/10/01 06:17:25;;;;;;;4.70;2.30;;;8.40;99.90;;;;;;5020592;28;20032;-65
2021/10/01 06:19:51;;;;;;;5.18;1.95;;;8.50;99.90;;;;;;5014104;28;20128;-65
2021/10/01 06:22:16;;;;;;;5.38;1.90;;;8.50;99.90;;;;;;5013557;28;20041;-65
2021/10/01 06:24:42;;;;;;;5.65;1.95;;;8.60;99.90;;;;;;5020708;28;20034;-65
2021/10/01 06:27:08;;;;;;;5.63;2.17;;;8.60;99.90;;;;;;5012901;28;20038;-65
2021/10/01 06:29:33;;;;;;;3.30;1.90;;;8.70;99.90;;;;;;5009644;28;20084;-65
2021/10/01 06:31:59;;;;;;;8.88;2.20;;;8.70;99.90;;;;;;5007152;28;20133;-64
2021/10/01 06:34:24;;;;;;;3.95;1.90;;;8.90;99.90;;;;;;5017852;28;20125;-65
2021/10/01 06:36:50;;;;;;;5.85;1.80;;;8.90;99.90;;;;;;5022330;28;20118;-65
2021/10/01 06:39:15;;;;;;;3.80;1.75;;;9.00;99.90;;;;;;5012091;28;20124;-64
2021/10/01 06:41:41;;;;;;;4.35;1.77;;;9.00;99.90;;;;;;5010663;28;20042;-65
2021/10/01 06:44:07;;;;;;;7.40;2.33;;;9.10;99.90;;;;;;5008230;28;20738;-65
2021/10/01 08:19:13;;;;;;;1.77;1.08;;;12.90;99.90;;;;;;5018248;28;20095;-65
2021/10/01 08:21:38;;;;;;;1.40;0.90;;;13.10;99.90;;;;;;5009216;28;20034;-65
2021/10/01 08:24:04;;;;;;;2.58;1.35;;;13.30;99.90;;;;;;5018381;28;20064;-66
2021/10/01 08:26:29;;;;;;;5.35;1.30;;;13.40;99.90;;;;;;5013110;28;20076;-66
2021/10/01 08:28:55;;;;;;;6.38;1.90;;;13.50;99.90;;;;;;5018834;28;20033;-65
2021/10/01 08:31:20;;;;;;;4.18;2.17;;;13.70;99.90;;;;;;5007241;28;20092;-65
2021/10/01 08:33:46;;;;;;;3.15;1.10;;;14.10;99.90;;;;;;5019778;28;20092;-65
2021/10/01 08:36:11;;;;;;;3.63;1.15;;;14.20;99.90;;;;;;5015340;28;20068;-65
2021/10/01 08:38:41;;;;;;;1.92;1.10;;;14.20;99.90;;;;;;5017967;28;20864;-65
2021/10/01 08:41:07;;;;;;;5.78;0.95;;;14.20;99.90;;;;;;5012794;28;20100;-65
2021/10/01 08:43:33;;;;;;;1.95;0.90;;;14.50;99.90;;;;;;5034439;28;20091;-66
2021/10/01 08:45:58;;;;;;;6.47;1.27;;;14.20;99.90;;;;;;5017413;28;20041;-66
2021/10/01 08:48:24;;;;;;;2.45;1.00;;;14.40;99.90;;;;;;5011658;28;20085;-66
2021/10/01 08:50:49;;;;;;;4.63;1.02;;;14.40;99.90;;;;;;5017553;28;20033;-65
2021/10/01 08:53:15;;;;;;;4.70;1.10;;;14.50;99.90;;;;;;5007814;28;20030;-66
2021/10/01 08:55:46;;;;;;;3.45;1.20;;;14.60;99.90;;;;;;5013907;28;20040;-67
2021/10/01 08:58:11;;;;;;;8.10;1.00;;;14.80;99.90;;;;;;5010660;28;20033;-65
2021/10/01 09:00:37;;;;;;;2.72;1.08;;;14.90;99.90;;;;;;5014362;28;20500;-65
2021/10/01 09:03:02;;;;;;;2.35;1.35;;;14.90;99.90;;;;;;5012212;28;20037;-65
2021/10/01 09:05:28;;;;;;;4.15;1.40;;;15.10;99.90;;;;;;5017453;28;20486;-65
2021/10/01 09:07:53;;;;;;;3.05;1.02;;;15.30;99.90;;;;;;5011018;28;20549;-65
2021/10/01 09:10:19;;;;;;;2.78;1.10;;;15.30;99.90;;;;;;5013330;28;20025;-65
2021/10/01 09:12:44;;;;;;;4.72;1.10;;;15.40;99.60;;;;;;5008738;28;20037;-65
2021/10/01 09:15:10;;;;;;;1.67;0.70;;;15.40;99.70;;;;;;5004734;28;20026;-65
2021/10/01 09:17:42;;;;;;;4.43;1.15;;;15.80;99.40;;;;;;5018380;28;20532;-65
2021/10/01 09:20:07;;;;;;;1.63;0.95;;;15.80;99.50;;;;;;5017197;28;20038;-65
2021/10/01 09:22:33;;;;;;;1.80;0.95;;;16.00;98.20;;;;;;5018062;28;20026;-65
2021/10/01 09:24:58;;;;;;;3.78;0.98;;;16.00;97.40;;;;;;5019017;28;20624;-65
2021/10/01 09:27:24;;;;;;;2.88;0.90;;;16.00;97.70;;;;;;5016929;28;20044;-64
2021/10/01 09:29:49;;;;;;;3.17;0.80;;;15.80;98.10;;;;;;5017473;28;20554;-64
2021/10/01 09:32:15;;;;;;;4.05;0.82;;;15.90;99.30;;;;;;5019089;28;20022;-65
2021/10/01 09:34:40;;;;;;;3.05;1.00;;;15.90;97.70;;;;;;5013448;28;20100;-65
2021/10/01 09:37:06;;;;;;;1.55;0.80;;;15.80;97.80;;;;;;5019025;28;20037;-65
2021/10/01 09:39:31;;;;;;;3.38;0.80;;;16.20;97.90;;;;;;5018406;28;20037;-65
2021/10/01 09:42:00;;;;;;;2.80;0.80;;;16.50;97.00;;;;;;5014911;28;20136;-65
2021/10/01 09:44:25;;;;;;;4.10;1.33;;;16.20;96.80;;;;;;5002384;28;20034;-65
2021/10/01 09:46:51;;;;;;;9.20;1.15;;;16.30;97.10;;;;;;5011994;28;20879;-65
2021/10/01 09:49:16;;;;;;;2.63;1.00;;;16.20;97.20;;;;;;5015084;28;20041;-65
2021/10/01 09:51:41;;;;;;;3.75;0.80;;;16.30;97.70;;;;;;5014569;28;20037;-65
2021/10/01 09:54:07;;;;;;;5.20;0.85;;;16.50;98.00;;;;;;5014714;28;20121;-65
2021/10/01 09:56:32;;;;;;;3.40;0.80;;;16.50;97.00;;;;;;5018320;28;20555;-65
2021/10/01 09:58:58;;;;;;;5.15;0.93;;;16.60;97.00;;;;;;5005658;28;20046;-65
2021/10/01 10:01:23;;;;;;;1.73;0.90;;;16.70;97.20;;;;;;5015051;28;20146;-65
2021/10/01 10:03:49;;;;;;;8.95;4.35;;;17.00;96.60;;;;;;5017105;28;20053;-65
2021/10/01 10:06:15;;;;;;;3.83;0.70;;;17.00;96.90;;;;;;5009738;28;20046;-65
2021/10/01 10:08:40;;;;;;;4.40;1.02;;;17.40;96.50;;;;;;5005786;28;20026;-65
2021/10/01 10:11:06;;;;;;;2.83;0.82;;;17.00;96.50;;;;;;5014323;28;20763;-65
2021/10/01 10:13:31;;;;;;;5.78;0.82;;;17.00;95.70;;;;;;5010599;28;20049;-65
2021/10/01 10:15:56;;;;;;;4.13;0.82;;;17.00;96.20;;;;;;5010776;28;20033;-65
2021/10/01 10:18:22;;;;;;;3.33;0.90;;;17.10;96.00;;;;;;5008048;28;20033;-64
2021/10/01 10:20:47;;;;;;;3.85;1.10;;;17.30;95.80;;;;;;5002551;28;20038;-65
2021/10/01 10:23:13;;;;;;;1.75;0.90;;;17.40;95.20;;;;;;5004017;28;20120;-65
2021/10/01 10:25:38;;;;;;;2.72;0.95;;;17.40;96.00;;;;;;5007482;28;20029;-64
2021/10/01 10:28:05;;;;;;;4.20;1.05;;;17.20;95.10;;;;;;5011643;28;20030;-65
2021/10/01 10:30:30;;;;;;;2.08;0.80;;;17.00;95.90;;;;;;5013184;28;20029;-65
2021/10/01 10:32:56;;;;;;;3.47;0.80;;;16.90;96.10;;;;;;5019112;28;20034;-65
2021/10/01 10:35:23;;;;;;;6.88;1.40;;;17.00;96.10;;;;;;5015851;28;20029;-66
2021/10/01 10:37:53;;;;;;;2.88;0.80;;;16.80;95.80;;;;;;5011213;28;20112;-65
2021/10/01 10:40:18;;;;;;;1.63;0.70;;;16.90;95.40;;;;;;5015389;28;20057;-65
2021/10/01 10:42:44;;;;;;;5.00;0.60;;;17.20;95.40;;;;;;5018486;28;20068;-65
2021/10/01 10:45:09;;;;;;;1.80;0.70;;;17.10;96.30;;;;;;5018388;28;20104;-64
2021/10/01 10:47:35;;;;;;;2.85;0.90;;;17.10;95.80;;;;;;5014752;28;20457;-65
2021/10/01 10:50:00;;;;;;;5.15;0.93;;;17.50;95.30;;;;;;5015229;28;20033;-65
2021/10/01 10:52:26;;;;;;;1.73;0.70;;;17.40;95.40;;;;;;5020618;28;20693;-65
2021/10/01 10:54:51;;;;;;;1.02;0.55;;;17.40;95.80;;;;;;5022374;28;20383;-64
2021/10/01 10:57:17;;;;;;;5.80;0.80;;;17.50;94.70;;;;;;5019630;28;20126;-64
2021/10/01 10:59:42;;;;;;;2.70;0.60;;;17.70;94.90;;;;;;5017317;28;20167;-65
2021/10/01 11:02:08;;;;;;;7.25;0.70;;;18.00;94.60;;;;;;5015706;28;20033;-65
2021/10/01 11:04:35;;;;;;;4.38;1.20;;;17.90;94.60;;;;;;5014084;28;20482;-65
2021/10/01 11:07:01;;;;;;;6.22;0.68;;;18.00;94.70;;;;;;5020881;28;20048;-65
2021/10/01 11:09:26;;;;;;;2.05;0.70;;;18.10;94.00;;;;;;5010285;28;20029;-65
2021/10/01 11:11:57;;;;;;;4.20;0.80;;;18.10;94.80;;;;;;5016405;28;20112;-65
2021/10/01 11:14:25;;;;;;;3.88;0.82;;;18.30;95.90;;;;;;5008599;28;20465;-65
2021/10/01 11:16:50;;;;;;;5.85;1.00;;;18.50;93.50;;;;;;5005178;28;20033;-66
2021/10/01 11:19:16;;;;;;;1.98;0.63;;;18.60;94.30;;;;;;5019599;28;20063;-66
2021/10/01 11:21:44;;;;;;;9.40;0.85;;;18.60;94.50;;;;;;5016390;28;20112;-65
2021/10/01 11:24:10;;;;;;;5.40;0.70;;;19.00;93.70;;;;;;5014630;28;20176;-66
2021/10/01 11:26:35;;;;;;;2.28;0.68;;;19.00;92.80;;;;;;5012416;28;20034;-65
2021/10/01 11:29:01;;;;;;;4.30;0.90;;;18.80;94.00;;;;;;5020786;28;20030;-65
2021/10/01 11:31:26;;;;;;;2.40;0.80;;;18.80;93.10;;;;;;5017055;28;20034;-65
2021/10/01 11:33:52;;;;;;;3.72;0.73;;;18.80;93.60;;;;;;5013602;28;20048;-65
2021/10/01 11:36:17;;;;;;;2.25;0.80;;;18.70;93.30;;;;;;5021791;28;20029;-64
2021/10/01 11:38:42;;;;;;;2.92;0.73;;;18.80;92.90;;;;;;5021658;28;20059;-65
2021/10/01 11:41:08;;;;;;;1.92;1.00;;;19.20;93.10;;;;;;5020850;28;20038;-65
2021/10/01 11:43:33;;;;;;;4.15;0.95;;;19.40;93.50;;;;;;5015021;28;20061;-64
2021/10/01 11:45:59;;;;;;;2.85;0.82;;;19.50;92.30;;;;;;5014866;28;21002;-65
2021/10/01 11:48:25;;;;;;;5.90;0.60;;;19.40;91.40;;;;;;5008016;28;20072;-65
2021/10/01 11:50:50;;;;;;;3.30;1.00;;;19.40;91.20;;;;;;5016735;28;20041;-65
2021/10/01 11:53:15;;;;;;;4.85;0.90;;;19.10;91.80;;;;;;5017190;28;20029;-65
2021/10/01 11:55:41;;;;;;;3.63;0.70;;;19.10;93.10;;;;;;5011771;28;20721;-66
2021/10/01 11:58:06;;;;;;;1.98;0.70;;;19.40;92.30;;;;;;5007025;28;20037;-65
2021/10/01 12:00:32;;;;;;;9.07;0.70;;;19.40;91.70;;;;;;5011873;28;20120;-66
2021/10/01 12:02:57;;;;;;;3.00;0.80;;;19.40;93.10;;;;;;5008143;28;20066;-66
2021/10/01 12:05:23;;;;;;;2.50;0.70;;;19.50;92.70;;;;;;5015044;28;20111;-66
2021/10/01 12:07:48;;;;;;;3.40;0.90;;;19.50;91.10;;;;;;5018934;28;20026;-66
2021/10/01 12:10:14;;;;;;;1.65;0.60;;;19.50;91.80;;;;;;5020824;28;20053;-66
2021/10/01 12:12:39;;;;;;;3.45;0.70;;;19.60;91.30;;;;;;5006777;28;20092;-66
2021/10/01 12:15:05;;;;;;;1.23;0.65;;;19.20;91.00;;;;;;5016232;28;20367;-66
2021/10/01 12:17:30;;;;;;;1.83;0.73;;;19.10;92.40;;;;;;5016979;28;20124;-66
2021/10/01 12:19:56;;;;;;;3.58;0.80;;;19.00;91.20;;;;;;5013951;28;20107;-66
2021/10/01 12:22:21;;;;;;;3.20;0.80;;;19.00;90.80;;;;;;5021404;28;20056;-66
2021/10/01 12:24:47;;;;;;;5.47;0.95;;;18.70;89.50;;;;;;5019196;28;20045;-66
2021/10/01 12:27:12;;;;;;;0.93;0.68;;;18.80;92.00;;;;;;5013676;28;20634;-78
2021/10/01 12:29:38;;;;;;;3.33;0.80;;;18.90;90.50;;;;;;5021325;28;20888;-73
2021/10/01 12:32:03;;;;;;;4.28;0.68;;;18.80;90.00;;;;;;5012296;28;20030;-75
2021/10/01 12:34:29;;;;;;;6.13;0.90;;;18.70;90.90;;;;;;5014932;28;20037;-75
2021/10/01 12:36:55;;;;;;;8.68;1.85;;;18.80;89.80;;;;;;5014292;28;20037;-75
2021/10/01 12:39:20;;;;;;;3.10;0.70;;;18.80;88.90;;;;;;5018762;28;20041;-75
2021/10/01 12:41:45;;;;;;;3.13;0.80;;;18.70;89.90;;;;;;5011741;28;20040;-74
2021/10/01 12:44:11;;;;;;;1.40;0.75;;;18.70;89.70;;;;;;5023054;28;20792;-73
2021/10/01 12:46:36;;;;;;;2.20;0.63;;;18.70;89.90;;;;;;5018805;28;20223;-66
2021/10/01 12:49:02;;;;;;;3.95;0.88;;;18.80;89.20;;;;;;5012507;28;20721;-65
2021/10/01 12:51:27;;;;;;;2.95;0.73;;;18.90;90.40;;;;;;5020672;28;20109;-65
2021/10/01 12:53:53;;;;;;;4.10;0.73;;;18.90;90.80;;;;;;5008633;28;20653;-65
2021/10/01 12:56:18;;;;;;;3.03;0.65;;;19.20;91.80;;;;;;5016432;28;20030;-66
2021/10/01 12:58:44;;;;;;;1.77;0.80;;;19.20;91.30;;;;;;5013039;28;20082;-65
2021/10/01 13:01:09;;;;;;;4.82;0.70;;;18.70;91.20;;;;;;5018696;28;20128;-65
2021/10/01 13:03:35;;;;;;;3.42;1.00;;;19.10;91.10;;;;;;5007713;28;20133;-65
2021/10/01 13:06:00;;;;;;;5.05;0.90;;;19.10;92.20;;;;;;5021352;28;20402;-64
2021/10/01 13:08:26;;;;;;;2.33;0.60;;;19.10;91.50;;;;;;5016929;28;20148;-74
2021/10/01 13:10:51;;;;;;;2.53;1.00;;;19.10;91.10;;;;;;5016492;28;20498;-77
2021/10/01 13:13:17;;;;;;;2.83;0.90;;;19.30;91.30;;;;;;5020331;28;20029;-75
2021/10/01 13:15:42;;;;;;;3.45;0.93;;;19.10;91.00;;;;;;5017839;28;20026;-76
2021/10/01 13:18:08;;;;;;;2.67;1.02;;;19.00;90.70;;;;;;5012715;28;20432;-74
2021/10/01 13:20:33;;;;;;;2.28;0.50;;;18.90;90.90;;;;;;5015222;28;20033;-75
2021/10/01 13:23:01;;;;;;;4.78;0.93;;;19.00;90.30;;;;;;5016994;28;20029;-75
2021/10/01 13:25:26;;;;;;;2.75;0.82;;;19.00;90.70;;;;;;5019934;28;20124;-75
2021/10/01 13:27:52;;;;;;;1.92;0.80;;;19.10;90.30;;;;;;5018913;28;20041;-76
2021/10/01 13:30:17;;;;;;;4.50;1.23;;;19.20;90.70;;;;;;5019931;28;20060;-75
2021/10/01 13:32:43;;;;;;;4.78;1.20;;;19.30;90.60;;;;;;5013246;28;20042;-75
2021/10/01 13:35:10;;;;;;;9.00;4.68;;;19.40;90.60;;;;;;5013945;28;20083;-76
2021/10/01 13:37:35;;;;;;;3.42;1.40;;;19.30;90.60;;;;;;5014878;28;20124;-75
2021/10/01 13:40:01;;;;;;;3.05;1.10;;;19.20;91.80;;;;;;5013367;28;20048;-64
2021/10/01 13:42:27;;;;;;;7.43;1.50;;;19.20;91.20;;;;;;5017556;28;20041;-64
2021/10/01 13:44:52;;;;;;;3.58;1.23;;;19.20;91.30;;;;;;5016649;28;20695;-64
2021/10/01 13:47:18;;;;;;;1.80;0.88;;;19.20;90.30;;;;;;5016866;28;20038;-64
2021/10/01 13:49:43;;;;;;;9.98;4.93;;;19.00;90.40;;;;;;5019677;28;20086;-64
2021/10/01 13:52:09;;;;;;;4.13;1.48;;;19.20;91.00;;;;;;5016448;28;20108;-64
2021/10/01 13:54:34;;;;;;;2.72;1.17;;;19.40;90.50;;;;;;5015987;28;20880;-70
2021/10/01 13:57:00;;;;;;;4.70;1.00;;;19.80;90.10;;;;;;5012190;28;20766;-68
2021/10/01 13:59:25;;;;;;;17.85;6.07;;;19.80;88.70;;;;;;5010430;28;20040;-74
2021/10/01 14:01:51;;;;;;;2.03;1.00;;;19.80;86.60;;;;;;5009706;28;20098;-72
2021/10/01 14:04:16;;;;;;;6.47;3.13;;;19.80;86.70;;;;;;5011542;28;20044;-75
2021/10/01 14:06:42;;;;;;;1.55;0.80;;;20.00;88.50;;;;;;5014355;28;20207;-72
2021/10/01 14:09:07;;;;;;;3.95;1.58;;;19.80;85.10;;;;;;5015862;28;20041;-72
2021/10/01 14:11:33;;;;;;;6.07;1.90;;;19.70;89.20;;;;;;5018828;28;20784;-74
2021/10/01 14:13:59;;;;;;;3.55;1.33;;;19.70;88.50;;;;;;5016223;28;20083;-71
2021/10/01 14:16:24;;;;;;;4.15;0.80;;;19.40;85.80;;;;;;5019748;28;20508;-71
2021/10/01 14:18:50;;;;;;;2.33;1.17;;;19.10;86.50;;;;;;5015767;28;20029;-71
2021/10/01 14:21:15;;;;;;;1.90;0.73;;;19.00;87.60;;;;;;5009938;28;20064;-71
2021/10/01 14:23:41;;;;;;;11.77;0.88;;;18.80;87.90;;;;;;5010634;28;20347;-73